Time;durP1;ratioP1;P1;durP2;ratioP2;P2;SDS_P1;SDS_P2;PMS_P1;PMS_P2;Temp;Humidity;BMP_temperature;BMP_pressure;BME280_temperature;BME280_humidity;BME280_pressure;Samples;Min_cycle;Max_cycle;Signal;HPM_P1;HPM_P2
2021/12/02 00:01:39;;;;;;;5.95;1.80;;;;;;;5.82;100.00;99825.69;5234041;28;20083;-71
2021/12/02 00:04:11;;;;;;;8.05;2.22;;;;;;;5.84;100.00;99837.63;5234961;28;20425;-71
2021/12/02 00:06:42;;;;;;;9.55;1.88;;;;;;;5.84;100.00;99832.41;5234001;28;20410;-71
2021/12/02 00:09:14;;;;;;;8.15;1.83;;;;;;;5.83;100.00;99835.13;5208442;28;20772;-71
2021/12/02 00:11:45;;;;;;;8.05;1.70;;;;;;;5.80;100.00;99841.41;5234576;28;20071;-71
2021/12/02 00:14:23;;;;;;;8.23;1.58;;;;;;;5.84;100.00;99845.41;5233204;28;20021;-71
2021/12/02 00:22:16;;;;;;;8.50;2.30;;;;;;;5.80;100.00;99845.78;5235078;28;20434;-72
2021/12/02 00:24:54;;;;;;;8.15;1.70;;;;;;;5.75;100.00;99833.13;5234180;28;20029;-71
2021/12/02 00:27:28;;;;;;;7.00;1.60;;;;;;;5.75;100.00;99853.09;5232804;28;20022;-71
2021/12/02 00:29:59;;;;;;;8.45;2.10;;;;;;;5.77;100.00;99849.44;5234766;28;20036;-71
2021/12/02 00:32:31;;;;;;;8.98;2.03;;;;;;;5.77;100.00;99848.63;5234520;28;20481;-71
2021/12/02 00:35:02;;;;;;;4.57;1.40;;;;;;;5.81;100.00;99839.63;5233447;28;20526;-71
2021/12/02 00:37:36;;;;;;;9.30;2.40;;;;;;;5.85;100.00;99838.44;5234456;28;20502;-71
2021/12/02 00:40:08;;;;;;;8.38;1.98;;;;;;;5.79;100.00;99831.94;5234714;28;20082;-71
2021/12/02 00:42:42;;;;;;;7.40;1.92;;;;;;;5.78;100.00;99826.88;5232913;28;20457;-71
2021/12/02 00:45:13;;;;;;;6.97;1.80;;;;;;;5.75;100.00;99834.91;5234426;28;20022;-71
2021/12/02 00:47:45;;;;;;;7.05;2.05;;;;;;;5.80;100.00;99830.19;5234584;28;20494;-71
2021/12/02 00:50:18;;;;;;;8.80;1.98;;;;;;;5.80;100.00;99828.41;5234893;28;20032;-71
2021/12/02 00:52:49;;;;;;;5.35;1.65;;;;;;;5.76;100.00;99837.41;5233046;28;20453;-71
2021/12/02 00:55:24;;;;;;;8.45;2.30;;;;;;;5.82;100.00;99833.47;5234627;28;20033;-71
2021/12/02 00:58:39;;;;;;;8.43;2.10;;;;;;;6.03;100.00;99831.78;5232265;28;20025;-71
2021/12/02 01:01:11;;;;;;;7.43;2.13;;;;;;;5.73;100.00;99816.03;5233151;28;20029;-71
2021/12/02 01:03:43;;;;;;;9.93;1.73;;;;;;;5.78;100.00;99826.88;5233006;28;20025;-72
2021/12/02 01:06:14;;;;;;;9.65;2.28;;;;;;;5.75;100.00;99819.31;5234523;28;20940;-71
2021/12/02 01:08:46;;;;;;;9.70;2.13;;;;;;;5.74;100.00;99828.09;5232931;28;20029;-72
2021/12/02 01:11:18;;;;;;;8.00;1.95;;;;;;;5.77;100.00;99828.66;5234354;28;20217;-71
2021/12/02 01:13:49;;;;;;;10.68;2.47;;;;;;;5.78;100.00;99837.28;5234152;28;20037;-71
2021/12/02 01:16:21;;;;;;;7.63;2.00;;;;;;;5.79;100.00;99846.72;5227210;28;20486;-72
2021/12/02 01:18:53;;;;;;;7.47;1.75;;;;;;;5.79;100.00;99842.34;5232631;28;20036;-71
2021/12/02 01:21:29;;;;;;;8.13;2.40;;;;;;;5.80;100.00;99841.41;5232912;28;20380;-71
2021/12/02 01:24:04;;;;;;;9.20;2.63;;;;;;;5.85;100.00;99851.44;5233751;28;20657;-72
2021/12/02 01:26:35;;;;;;;10.00;1.70;;;;;;;5.78;100.00;99845.06;5226667;28;20026;-71
2021/12/02 01:29:09;;;;;;;7.25;1.65;;;;;;;5.80;100.00;99835.41;5233501;28;20075;-72
2021/12/02 01:31:41;;;;;;;6.93;1.27;;;;;;;5.77;100.00;99839.06;5232136;28;20030;-71
2021/12/02 01:34:13;;;;;;;6.55;1.58;;;;;;;5.71;100.00;99844.72;5233494;28;20310;-71
2021/12/02 01:36:45;;;;;;;8.02;1.63;;;;;;;5.72;100.00;99843.81;5233536;28;20025;-71
2021/12/02 01:39:16;;;;;;;6.57;1.80;;;;;;;5.64;100.00;99843.56;5233335;28;20026;-71
2021/12/02 01:41:54;;;;;;;7.07;1.85;;;;;;;5.69;100.00;99849.25;5233503;28;20029;-71
2021/12/02 01:44:28;;;;;;;9.55;1.50;;;;;;;5.64;100.00;99853.97;5248896;28;20045;-71
2021/12/02 01:47:00;;;;;;;6.22;1.73;;;;;;;5.62;100.00;99858.47;5254462;28;20031;-71
2021/12/02 01:49:36;;;;;;;6.32;1.77;;;;;;;5.61;100.00;99842.06;5252984;28;20070;-71
2021/12/02 01:52:12;;;;;;;6.15;1.80;;;;;;;5.64;100.00;99848.78;5254642;28;20159;-71
2021/12/02 01:54:46;;;;;;;7.15;1.58;;;;;;;5.58;100.00;99850.09;5253537;28;20373;-71
2021/12/02 01:57:30;;;;;;;7.90;1.75;;;;;;;5.65;100.00;99849.63;5254487;28;20029;-71
2021/12/02 02:00:15;;;;;;;8.07;1.50;;;;;;;5.65;100.00;99860.00;5256542;28;20127;-71
2021/12/02 02:02:47;;;;;;;4.53;0.98;;;;;;;5.44;100.00;99847.78;5255738;28;20108;-71
2021/12/02 02:05:19;;;;;;;4.77;1.63;;;;;;;5.42;100.00;99849.69;5256953;28;20033;-71
2021/12/02 02:08:01;;;;;;;3.78;0.85;;;;;;;5.49;100.00;99847.41;5255897;28;20036;-71
2021/12/02 02:10:36;;;;;;;6.78;1.73;;;;;;;5.40;100.00;99853.34;5257273;28;20596;-71
2021/12/02 02:13:10;;;;;;;3.80;1.17;;;;;;;5.27;100.00;99854.31;5253877;28;20029;-71
2021/12/02 02:15:45;;;;;;;6.22;1.13;;;;;;;5.26;100.00;99855.22;5255386;28;20031;-71
2021/12/02 02:24:17;;;;;;;4.95;1.30;;;;;;;5.16;100.00;99848.31;5250926;28;20088;-71
2021/12/02 02:26:49;;;;;;;5.07;1.20;;;;;;;5.11;100.00;99857.28;5256403;28;20037;-71
2021/12/02 02:29:21;;;;;;;5.07;0.90;;;;;;;5.12;100.00;99848.53;5255782;28;20099;-71
2021/12/02 02:31:52;;;;;;;5.15;1.63;;;;;;;5.05;100.00;99844.78;5237452;28;20468;-71
2021/12/02 02:34:24;;;;;;;5.07;1.25;;;;;;;5.06;100.00;99848.19;5256402;28;20504;-71
2021/12/02 02:36:59;;;;;;;4.30;1.00;;;;;;;5.09;100.00;99853.16;5255473;28;20466;-71
2021/12/02 02:39:33;;;;;;;4.40;1.00;;;;;;;5.07;100.00;99857.63;5255011;28;20115;-71
2021/12/02 02:42:07;;;;;;;3.22;1.20;;;;;;;5.05;100.00;99852.56;5237482;28;20025;-71
2021/12/02 02:44:39;;;;;;;3.28;0.90;;;;;;;5.05;100.00;99849.13;5255686;28;20494;-71
2021/12/02 02:47:11;;;;;;;5.03;1.23;;;;;;;5.02;100.00;99849.38;5255280;28;20566;-71
2021/12/02 02:49:42;;;;;;;5.43;1.10;;;;;;;5.00;100.00;99854.69;5255409;28;20029;-72
2021/12/02 02:52:14;;;;;;;4.45;1.08;;;;;;;5.00;100.00;99849.50;5254741;28;20021;-71
2021/12/02 02:54:46;;;;;;;4.18;0.90;;;;;;;4.96;100.00;99849.84;5255992;28;20162;-71
2021/12/02 02:57:20;;;;;;;7.90;1.20;;;;;;;4.95;100.00;99851.59;5261029;28;20015;-71
2021/12/02 03:07:57;;;;;;;5.65;1.33;;;;;;;4.85;100.00;99861.06;5258421;28;20546;-71
2021/12/02 03:10:43;;;;;;;3.90;1.08;;;;;;;4.80;100.00;99852.78;5259237;28;20390;-71
2021/12/02 03:13:20;;;;;;;5.45;1.25;;;;;;;4.76;100.00;99846.19;5260058;28;20477;-71
2021/12/02 03:18:42;;;;;;;6.15;1.38;;;;;;;4.79;100.00;99853.75;5258732;28;20494;-71
2021/12/02 03:21:21;;;;;;;5.93;1.30;;;;;;;4.84;100.00;99860.22;5258261;28;20056;-71
2021/12/02 03:23:55;;;;;;;6.05;1.70;;;;;;;4.84;100.00;99860.22;5258925;28;20064;-72
2021/12/02 03:26:28;;;;;;;5.35;2.17;;;;;;;4.79;100.00;99856.34;5258524;28;20052;-71
2021/12/02 03:29:00;;;;;;;5.13;1.27;;;;;;;4.81;100.00;99864.81;5260586;28;20055;-71
2021/12/02 03:31:32;;;;;;;5.00;1.20;;;;;;;4.84;100.00;99870.59;5259012;28;20470;-71
2021/12/02 03:34:05;;;;;;;7.65;1.27;;;;;;;4.83;100.00;99868.94;5258585;28;20036;-71
2021/12/02 03:36:37;;;;;;;4.90;1.08;;;;;;;4.90;100.00;99873.69;5257785;28;20066;-71
2021/12/02 03:39:10;;;;;;;7.85;1.40;;;;;;;4.90;100.00;99882.28;5258592;28;20039;-71
2021/12/02 03:41:43;;;;;;;7.93;1.38;;;;;;;4.94;100.00;99878.50;5254995;28;20505;-71
2021/12/02 03:44:14;;;;;;;4.07;0.88;;;;;;;4.95;100.00;99882.75;5257432;28;20048;-71
2021/12/02 03:46:46;;;;;;;4.82;1.02;;;;;;;4.92;100.00;99889.94;5257645;28;20027;-71
2021/12/02 03:49:18;;;;;;;6.88;1.23;;;;;;;4.89;100.00;99883.25;5257523;28;20503;-71
2021/12/02 03:51:49;;;;;;;5.63;1.10;;;;;;;4.96;100.00;99888.75;5257342;28;20395;-71
2021/12/02 03:54:21;;;;;;;4.70;1.15;;;;;;;4.92;100.00;99880.38;5255969;28;20032;-71
2021/12/02 03:56:52;;;;;;;4.43;1.05;;;;;;;4.90;100.00;99874.50;5255504;28;20035;-71
2021/12/02 03:59:23;;;;;;;6.03;1.10;;;;;;;4.89;100.00;99875.47;5256382;28;20024;-71
2021/12/02 04:01:55;;;;;;;7.13;1.25;;;;;;;4.84;100.00;99870.59;5256561;28;20128;-71
2021/12/02 04:04:26;;;;;;;5.00;1.40;;;;;;;4.80;100.00;99868.34;5237650;28;20067;-71
2021/12/02 04:06:57;;;;;;;4.40;1.15;;;;;;;4.80;100.00;99868.34;5256078;28;20569;-71
2021/12/02 04:09:36;;;;;;;5.93;1.58;;;;;;;4.80;100.00;99868.34;5257183;28;20104;-71
2021/12/02 04:14:45;;;;;;;6.97;1.13;;;;;;;4.75;100.00;99863.53;5256299;28;20483;-72
2021/12/02 04:17:18;;;;;;;3.03;1.20;;;;;;;4.79;100.00;99866.72;5258275;28;20052;-71
2021/12/02 04:19:49;;;;;;;4.57;1.23;;;;;;;4.81;100.00;99872.59;5256163;28;20032;-71
2021/12/02 04:22:21;;;;;;;4.50;0.88;;;;;;;4.82;100.00;99866.47;5253721;28;20394;-71
2021/12/02 04:24:52;;;;;;;5.78;1.00;;;;;;;4.79;100.00;99866.72;5254834;28;20036;-71
2021/12/02 04:27:23;;;;;;;7.07;1.38;;;;;;;4.76;100.00;99867.75;5258040;28;20025;-71
2021/12/02 04:29:55;;;;;;;4.43;0.95;;;;;;;4.82;100.00;99866.47;5256320;28;20032;-71
2021/12/02 04:32:26;;;;;;;6.45;1.17;;;;;;;4.75;100.00;99860.94;5256420;28;20028;-71
2021/12/02 04:34:57;;;;;;;9.73;2.15;;;;;;;4.78;100.00;99867.66;5255447;28;20033;-71
2021/12/02 04:37:29;;;;;;;6.55;1.10;;;;;;;4.77;100.00;99863.41;5256424;28;20029;-71
2021/12/02 04:40:01;;;;;;;5.13;1.38;;;;;;;4.77;100.00;99873.78;5257681;28;20672;-71
2021/12/02 04:42:33;;;;;;;7.55;1.10;;;;;;;4.76;100.00;99878.13;5254787;28;20055;-72
2021/12/02 04:45:05;;;;;;;6.53;1.40;;;;;;;4.81;100.00;99881.22;5256447;28;20037;-71
2021/12/02 04:47:36;;;;;;;5.75;1.13;;;;;;;4.80;100.00;99879.56;5256575;28;20092;-71
2021/12/02 04:50:09;;;;;;;4.43;1.08;;;;;;;4.85;100.00;99887.00;5255180;28;20116;-71
2021/12/02 04:52:40;;;;;;;7.78;1.60;;;;;;;4.77;100.00;99894.53;5255049;28;20033;-71
2021/12/02 04:55:11;;;;;;;3.75;1.42;;;;;;;4.71;100.00;99895.84;5255767;28;20024;-71
2021/12/02 04:57:42;;;;;;;9.05;1.55;;;;;;;4.71;100.00;99902.78;5255548;28;20058;-71
2021/12/02 05:00:15;;;;;;;5.70;1.13;;;;;;;4.69;100.00;99896.88;5254995;28;20573;-71
2021/12/02 05:02:46;;;;;;;6.03;1.10;;;;;;;4.73;100.00;99887.94;5254704;28;20540;-71
2021/12/02 05:05:18;;;;;;;7.72;1.90;;;;;;;4.72;100.00;99896.66;5255247;28;20028;-71
2021/12/02 05:07:53;;;;;;;5.82;1.85;;;;;;;4.76;100.00;99898.91;5256131;28;20125;-71
2021/12/02 05:10:24;;;;;;;5.75;1.00;;;;;;;4.72;100.00;99894.06;5257424;28;20048;-71
2021/12/02 05:12:55;;;;;;;5.45;1.38;;;;;;;4.77;100.00;99910.09;5255048;28;20032;-71
2021/12/02 05:15:27;;;;;;;5.82;1.30;;;;;;;4.72;100.00;99920.00;5256484;28;20021;-71
2021/12/02 05:17:58;;;;;;;3.72;1.10;;;;;;;4.72;100.00;99918.25;5255670;28;20032;-71
2021/12/02 05:20:30;;;;;;;4.40;1.00;;;;;;;4.58;100.00;99931.41;5254317;28;20032;-71
2021/12/02 05:23:01;;;;;;;4.88;1.60;;;;;;;4.56;100.00;99933.31;5255061;28;20036;-71
2021/12/02 05:25:32;;;;;;;4.07;0.93;;;;;;;4.51;100.00;99932.81;5254075;28;20021;-71
2021/12/02 05:28:04;;;;;;;6.43;1.40;;;;;;;4.38;100.00;99931.13;5254133;28;20029;-71
2021/12/02 05:30:35;;;;;;;2.40;0.57;;;;;;;4.33;100.00;99932.41;5255827;28;20032;-71
2021/12/02 05:33:06;;;;;;;3.58;0.60;;;;;;;4.29;100.00;99931.81;5236705;28;20021;-71
2021/12/02 05:35:37;;;;;;;3.20;0.75;;;;;;;4.25;100.00;99922.59;5254345;28;20032;-71
2021/12/02 05:38:09;;;;;;;4.63;0.88;;;;;;;4.21;100.00;99920.34;5255894;28;20091;-71
2021/12/02 05:40:40;;;;;;;5.95;1.35;;;;;;;4.14;100.00;99912.19;5256758;28;20048;-71
2021/12/02 05:43:12;;;;;;;2.22;0.60;;;;;;;4.08;100.00;99913.44;5255156;28;20532;-72
2021/12/02 05:45:43;;;;;;;2.63;0.50;;;;;;;4.09;100.00;99915.13;5255491;28;20021;-72
2021/12/02 05:48:15;;;;;;;2.88;0.80;;;;;;;4.09;100.00;99928.09;5255590;28;20025;-72
2021/12/02 05:50:46;;;;;;;2.20;0.55;;;;;;;4.09;100.00;99938.44;5254890;28;20111;-72
2021/12/02 05:53:18;;;;;;;2.47;0.70;;;;;;;4.08;100.00;99941.97;5254617;28;20017;-72
2021/12/02 05:55:50;;;;;;;3.67;0.70;;;;;;;4.08;100.00;99939.38;5254940;28;20028;-71
2021/12/02 05:58:21;;;;;;;3.38;0.80;;;;;;;4.04;100.00;99935.34;5255283;28;20543;-71
2021/12/02 06:00:53;;;;;;;4.90;0.80;;;;;;;3.99;100.00;99929.69;5254864;28;20036;-71
2021/12/02 06:03:25;;;;;;;2.15;0.60;;;;;;;3.96;100.00;99927.28;5236069;28;20468;-71
2021/12/02 06:05:56;;;;;;;3.45;0.60;;;;;;;3.93;100.00;99924.09;5254807;28;20123;-71
2021/12/02 06:08:27;;;;;;;3.40;1.02;;;;;;;3.91;100.00;99921.63;5237880;28;20029;-72
2021/12/02 06:10:59;;;;;;;2.13;0.68;;;;;;;3.90;100.00;99925.13;5252684;28;20100;-72
2021/12/02 06:13:30;;;;;;;5.55;1.20;;;;;;;3.91;100.00;99932.00;5252948;28;20615;-72
2021/12/02 06:16:01;;;;;;;3.78;0.80;;;;;;;3.90;100.00;99919.94;5254010;28;20074;-72
2021/12/02 06:18:33;;;;;;;2.00;0.85;;;;;;;3.85;100.00;99922.06;5255439;28;20063;-72
2021/12/02 06:21:04;;;;;;;1.88;0.73;;;;;;;3.80;100.00;99922.38;5255996;28;20029;-72
2021/12/02 06:23:36;;;;;;;4.10;0.70;;;;;;;3.90;100.00;99933.75;5235015;28;20025;-72
2021/12/02 06:26:08;;;;;;;2.78;0.50;;;;;;;3.92;100.00;99941.41;5253250;28;20040;-71
2021/12/02 06:28:39;;;;;;;6.82;1.20;;;;;;;3.90;100.00;99945.88;5256673;28;20028;-72
2021/12/02 06:31:11;;;;;;;5.63;0.90;;;;;;;3.99;100.00;99955.59;5259298;28;20059;-72
2021/12/02 06:33:42;;;;;;;2.25;0.77;;;;;;;3.96;100.00;99942.03;5256384;28;20038;-72
2021/12/02 06:36:13;;;;;;;4.25;1.23;;;;;;;3.98;100.00;99946.16;5258072;28;20055;-71
2021/12/02 06:38:44;;;;;;;2.58;0.90;;;;;;;3.97;100.00;99947.09;5257936;28;20025;-73
2021/12/02 06:41:18;;;;;;;6.85;1.55;;;;;;;3.95;100.00;99938.59;5258307;28;20027;-71
2021/12/02 06:43:49;;;;;;;3.47;1.00;;;;;;;3.94;100.00;99939.56;5257224;28;20140;-72
2021/12/02 06:46:20;;;;;;;3.40;1.13;;;;;;;3.90;100.00;99928.59;5257112;28;20041;-72
2021/12/02 06:48:51;;;;;;;5.00;1.00;;;;;;;3.90;100.00;99941.53;5257671;28;20071;-72
2021/12/02 06:51:23;;;;;;;4.60;1.38;;;;;;;3.90;100.00;99946.72;5258126;28;20051;-72
2021/12/02 06:53:55;;;;;;;4.07;1.65;;;;;;;3.98;100.00;99966.91;5256280;28;20033;-72
2021/12/02 06:56:26;;;;;;;7.68;1.80;;;;;;;3.93;100.00;99979.34;5258018;28;20025;-72
2021/12/02 06:58:57;;;;;;;4.05;1.38;;;;;;;3.98;100.00;99979.88;5258744;28;20016;-72
2021/12/02 07:01:28;;;;;;;2.38;0.90;;;;;;;3.89;100.00;99973.53;5258700;28;20466;-72
2021/12/02 07:04:00;;;;;;;3.65;1.23;;;;;;;3.90;100.00;99979.56;5250768;28;20049;-72
2021/12/02 07:06:31;;;;;;;5.18;1.50;;;;;;;3.93;100.00;99987.13;5254722;28;20025;-72
2021/12/02 07:09:03;;;;;;;4.70;1.23;;;;;;;3.96;100.00;99996.44;5258020;28;20494;-72
2021/12/02 07:11:34;;;;;;;7.85;1.48;;;;;;;3.99;100.00;99997.06;5258793;28;20028;-72
2021/12/02 07:14:13;;;;;;;6.35;2.55;;;;;;;4.07;100.00;99996.50;5256008;28;20037;-74
2021/12/02 07:16:44;;;;;;;3.92;2.05;;;;;;;4.08;100.00;100000.75;5257462;28;20028;-74
2021/12/02 07:19:16;;;;;;;7.13;2.42;;;;;;;4.04;100.00;99988.94;5257855;28;20025;-72
2021/12/02 07:21:47;;;;;;;3.75;1.50;;;;;;;4.11;100.00;100001.34;5258021;28;20032;-72
2021/12/02 07:24:19;;;;;;;7.68;1.90;;;;;;;4.10;100.00;100002.31;5256971;28;20112;-72
2021/12/02 07:26:50;;;;;;;4.97;2.00;;;;;;;4.11;100.00;100011.72;5259163;28;20041;-72
2021/12/02 07:29:21;;;;;;;3.97;1.60;;;;;;;4.09;100.00;100021.41;5258573;28;20074;-72
2021/12/02 07:31:53;;;;;;;3.55;1.30;;;;;;;4.09;100.00;100024.00;5258079;28;20052;-72
2021/12/02 07:34:32;;;;;;;6.07;2.00;;;;;;;4.14;100.00;100029.66;5259109;28;20044;-71
2021/12/02 07:37:03;;;;;;;5.68;1.75;;;;;;;4.15;100.00;100014.94;5256914;28;20040;-72
2021/12/02 07:39:35;;;;;;;5.60;2.17;;;;;;;4.15;100.00;100030.47;5256556;28;20025;-71
2021/12/02 07:42:06;;;;;;;4.82;1.65;;;;;;;4.09;100.00;100025.72;5255292;28;20091;-71
2021/12/02 07:44:38;;;;;;;3.92;1.77;;;;;;;4.15;100.00;100028.72;5257536;28;20095;-71
2021/12/02 07:47:09;;;;;;;9.80;2.67;;;;;;;4.17;100.00;100031.22;5255735;28;20441;-74
2021/12/02 07:49:41;;;;;;;3.00;1.17;;;;;;;4.13;100.00;100029.78;5256305;28;20091;-71
2021/12/02 07:52:14;;;;;;;6.68;1.80;;;;;;;4.14;100.00;100031.44;5256711;28;20474;-72
2021/12/02 07:54:46;;;;;;;;;;;;;;;4.64;100.00;100025.19;5254691;28;20017;-72
2021/12/02 07:57:19;;;;;;;4.53;1.60;;;;;;;4.11;100.00;100027.28;5255334;28;20374;-71
2021/12/02 07:59:52;;;;;;;4.72;1.60;;;;;;;4.07;100.00;100031.03;5256952;28;20033;-71
2021/12/02 08:02:28;;;;;;;4.75;1.80;;;;;;;4.15;100.00;100036.50;5255298;28;20504;-71
2021/12/02 08:05:00;;;;;;;4.45;1.95;;;;;;;4.02;100.00;100043.50;5252459;28;20033;-71
2021/12/02 08:07:33;;;;;;;3.72;2.15;;;;;;;4.01;100.00;100035.81;5255360;28;20033;-71
2021/12/02 08:10:08;;;;;;;5.78;2.03;;;;;;;4.02;100.00;100040.91;5256298;28;20017;-71
2021/12/02 08:12:45;;;;;;;5.20;2.00;;;;;;;4.03;100.00;100041.72;5254615;28;20418;-71
2021/12/02 08:15:20;;;;;;;5.00;2.05;;;;;;;3.98;100.00;100041.19;5256104;28;20025;-71
2021/12/02 08:17:53;;;;;;;6.20;2.03;;;;;;;3.97;100.00;100052.50;5256131;28;20033;-71
2021/12/02 08:20:27;;;;;;;5.57;1.50;;;;;;;4.02;100.00;100053.03;5255009;28;20036;-71
2021/12/02 08:22:59;;;;;;;7.35;2.20;;;;;;;3.90;100.00;100055.56;5255235;28;20060;-71
2021/12/02 08:25:31;;;;;;;4.25;1.98;;;;;;;3.92;100.00;100057.19;5255913;28;20184;-71
2021/12/02 08:28:03;;;;;;;7.77;1.90;;;;;;;3.87;100.00;100055.75;5254744;28;20032;-71
2021/12/02 08:30:37;;;;;;;4.43;2.13;;;;;;;3.93;100.00;100061.44;5253931;28;20029;-71
2021/12/02 08:33:12;;;;;;;4.82;1.90;;;;;;;3.86;100.00;100064.47;5254457;28;20021;-71
2021/12/02 08:35:44;;;;;;;7.93;2.20;;;;;;;3.83;100.00;100069.88;5255625;28;20094;-71
2021/12/02 08:38:17;;;;;;;7.13;2.13;;;;;;;3.81;100.00;100063.94;5255921;28;20021;-71
2021/12/02 08:40:49;;;;;;;7.50;1.63;;;;;;;3.79;100.00;100068.41;5254239;28;20116;-71
2021/12/02 08:43:20;;;;;;;6.10;1.60;;;;;;;3.79;100.00;100067.56;5254973;28;20124;-71
2021/12/02 08:45:52;;;;;;;4.40;1.40;;;;;;;3.72;100.00;100056.81;5255273;28;20028;-71
2021/12/02 08:48:23;;;;;;;5.68;1.70;;;;;;;3.82;100.00;100077.72;5254391;28;20032;-71
2021/12/02 08:50:54;;;;;;;4.88;1.73;;;;;;;3.85;100.00;100086.13;5254610;28;20025;-71
2021/12/02 08:53:25;;;;;;;4.68;1.80;;;;;;;3.88;100.00;100096.28;5254807;28;20021;-71
2021/12/02 08:55:57;;;;;;;4.88;1.40;;;;;;;3.93;100.00;100101.13;5254024;28;20029;-71
2021/12/02 08:58:28;;;;;;;6.70;1.67;;;;;;;3.92;100.00;100104.66;5254191;28;20021;-71
2021/12/02 09:00:59;;;;;;;5.07;1.85;;;;;;;4.05;100.00;100115.84;5254773;28;20063;-71
2021/12/02 09:03:33;;;;;;;9.60;1.90;;;;;;;4.12;100.00;100117.06;5253718;28;20079;-71
2021/12/02 09:06:09;;;;;;;6.18;1.60;;;;;;;4.18;100.00;100115.81;5254560;28;20025;-71
2021/12/02 09:08:41;;;;;;;7.63;1.92;;;;;;;4.23;100.00;100128.47;5254890;28;20028;-71
2021/12/02 09:11:12;;;;;;;5.32;2.17;;;;;;;4.25;100.00;100130.03;5254641;28;20025;-71
2021/12/02 09:13:43;;;;;;;6.13;2.17;;;;;;;4.29;100.00;100134.06;5253435;28;20409;-71
2021/12/02 09:16:15;;;;;;;7.22;1.90;;;;;;;4.31;100.00;100139.13;5254415;28;20020;-71
2021/12/02 09:18:46;;;;;;;8.43;2.10;;;;;;;4.32;100.00;100141.63;5254391;28;20478;-71
2021/12/02 09:21:17;;;;;;;6.97;2.10;;;;;;;4.27;100.00;100130.72;5254464;28;20481;-71
2021/12/02 09:23:49;;;;;;;7.70;1.80;;;;;;;4.34;100.00;100139.72;5251045;28;20031;-71
2021/12/02 09:26:20;;;;;;;6.18;1.80;;;;;;;4.32;100.00;100143.41;5253926;28;20043;-71
2021/12/02 09:28:53;;;;;;;9.32;2.15;;;;;;;4.31;100.00;100152.09;5254822;28;20033;-71
2021/12/02 09:31:25;;;;;;;7.13;1.92;;;;;;;4.32;100.00;100157.19;5253833;28;20013;-71
2021/12/02 09:33:56;;;;;;;6.55;1.60;;;;;;;4.31;100.00;100159.88;5253501;28;20504;-71
2021/12/02 09:36:27;;;;;;;7.38;1.50;;;;;;;4.37;100.00;100156.84;5253980;28;20032;-71
2021/12/02 09:38:58;;;;;;;5.20;1.35;;;;;;;4.34;100.00;100154.47;5253012;28;20383;-71
2021/12/02 09:41:30;;;;;;;4.63;1.30;;;;;;;4.39;100.00;100165.34;5253868;28;20040;-71
2021/12/02 09:44:02;;;;;;;6.13;1.65;;;;;;;4.41;100.00;100160.06;5234611;28;20056;-71
2021/12/02 09:46:34;;;;;;;5.90;1.50;;;;;;;4.39;100.00;100167.94;5217845;28;20121;-72
2021/12/02 09:49:09;;;;;;;7.57;1.57;;;;;;;4.51;100.00;100172.28;5232838;28;20607;-71
2021/12/02 09:54:22;;;;;;;6.97;1.63;;;;;;;4.53;100.00;100169.56;5232313;28;20068;-71
2021/12/02 09:57:01;;;;;;;6.22;1.73;;;;;;;4.55;100.00;100168.53;5232406;28;20112;-71
2021/12/02 10:02:16;;;;;;;3.10;1.60;;;;;;;4.57;100.00;100158.88;5232459;28;20043;-71
2021/12/02 10:07:34;;;;;;;5.97;1.90;;;;;;;4.77;100.00;100157.47;5231210;28;20087;-71
2021/12/02 10:10:15;;;;;;;8.90;1.40;;;;;;;4.82;100.00;100159.72;5232729;28;20028;-71
2021/12/02 10:13:07;;;;;;;9.18;1.77;;;;;;;5.02;100.00;100164.28;5231641;28;20120;-71
2021/12/02 10:15:40;;;;;;;5.82;1.65;;;;;;;4.88;100.00;100160.09;5232055;28;20540;-71
2021/12/02 10:18:13;;;;;;;7.78;1.55;;;;;;;4.88;100.00;100167.06;5231960;28;20074;-71
2021/12/02 10:20:49;;;;;;;7.05;1.55;;;;;;;4.93;100.00;100172.75;5212908;28;20026;-71
2021/12/02 10:23:25;;;;;;;7.10;2.05;;;;;;;5.04;100.00;100179.78;5227380;28;20362;-71
2021/12/02 10:26:00;;;;;;;9.30;1.67;;;;;;;5.04;100.00;100180.59;5227217;28;20104;-71
2021/12/02 10:28:37;;;;;;;9.40;1.65;;;;;;;5.10;100.00;100184.50;5229784;28;20212;-71
2021/12/02 10:31:10;;;;;;;3.78;1.67;;;;;;;5.09;100.00;100194.06;5231418;28;20434;-71
2021/12/02 10:33:45;;;;;;;4.75;1.73;;;;;;;5.09;100.00;100190.66;5201616;28;20045;-71
2021/12/02 10:36:24;;;;;;;9.13;2.20;;;;;;;5.13;100.00;100185.13;5228929;28;20048;-71
2021/12/02 10:38:59;;;;;;;6.90;2.10;;;;;;;5.00;100.00;100193.91;5230890;28;20059;-71
2021/12/02 10:41:30;;;;;;;7.78;2.30;;;;;;;4.87;100.00;100202.56;5231387;28;20060;-71
2021/12/02 10:44:19;;;;;;;5.93;1.63;;;;;;;5.03;100.00;100199.69;5241479;28;20073;-71
2021/12/02 10:47:09;;;;;;;5.55;2.17;;;;;;;5.06;100.00;100198.66;5245934;28;20494;-71
2021/12/02 10:49:45;;;;;;;10.52;2.00;;;;;;;4.93;100.00;100209.09;5246174;28;20485;-71
2021/12/02 10:52:26;;;;;;;10.32;2.30;;;;;;;4.97;100.00;100202.75;5224857;28;20049;-71
2021/12/02 10:55:07;;;;;;;10.10;2.63;;;;;;;4.99;100.00;100210.41;5246224;28;20075;-71
2021/12/02 10:57:45;;;;;;;8.65;2.40;;;;;;;5.08;100.00;100204.59;5233254;28;20040;-71
2021/12/02 11:00:20;;;;;;;9.10;2.38;;;;;;;5.01;100.00;100219.75;5244494;28;20033;-71
2021/12/02 11:02:54;;;;;;;8.10;2.28;;;;;;;5.05;100.00;100210.00;5250476;28;20029;-71
2021/12/02 11:05:33;;;;;;;7.85;1.70;;;;;;;5.16;100.00;100212.63;5249551;28;20409;-71
2021/12/02 11:08:08;;;;;;;7.57;2.13;;;;;;;5.11;100.00;100212.97;5248279;28;20033;-72
2021/12/02 11:10:46;;;;;;;8.27;2.05;;;;;;;5.22;100.00;100216.53;5251880;28;20028;-71
2021/12/02 11:13:28;;;;;;;11.23;2.75;;;;;;;5.30;100.00;100222.88;5248954;28;20021;-72
2021/12/02 11:15:59;;;;;;;9.27;2.15;;;;;;;5.26;100.00;100225.78;5242667;28;20250;-71
2021/12/02 11:18:34;;;;;;;6.60;2.30;;;;;;;5.24;100.00;100225.91;5256009;28;20025;-71
2021/12/02 11:21:07;;;;;;;12.75;2.58;;;;;;;5.28;100.00;100229.91;5252169;28;20108;-71
2021/12/02 11:23:46;;;;;;;6.65;1.70;;;;;;;5.23;100.00;100224.25;5245737;28;20029;-71
2021/12/02 11:26:18;;;;;;;7.07;1.83;;;;;;;5.25;100.00;100224.13;5251486;28;20585;-71
2021/12/02 11:28:50;;;;;;;8.27;1.90;;;;;;;5.13;100.00;100218.88;5255259;28;20025;-71
2021/12/02 11:31:24;;;;;;;6.20;2.30;;;;;;;5.30;100.00;100227.19;5238306;28;20053;-71
2021/12/02 11:33:56;;;;;;;6.93;1.80;;;;;;;5.27;100.00;100225.69;5254993;28;20123;-71
2021/12/02 11:36:30;;;;;;;8.48;2.33;;;;;;;5.40;100.00;100232.56;5248732;28;20029;-71
2021/12/02 11:39:05;;;;;;;6.38;2.20;;;;;;;5.51;100.00;100237.81;5242460;28;20029;-71
2021/12/02 11:41:36;;;;;;;7.32;2.88;;;;;;;5.60;100.00;100232.75;5232727;28;20014;-71
2021/12/02 11:44:08;;;;;;;5.80;1.30;;;;;;;5.67;100.00;100246.13;5231333;28;20524;-72
2021/12/02 11:46:40;;;;;;;6.00;1.25;;;;;;;5.63;100.00;100243.88;5246904;28;20017;-71
2021/12/02 11:49:11;;;;;;;3.38;1.40;;;;;;;5.59;100.00;100245.88;5255306;28;20025;-71
2021/12/02 11:51:43;;;;;;;6.78;1.80;;;;;;;5.53;100.00;100257.56;5247822;28;20834;-72
2021/12/02 11:54:14;;;;;;;5.72;0.90;;;;;;;5.63;100.00;100251.66;5254780;28;20390;-72
2021/12/02 11:56:46;;;;;;;2.97;0.85;;;;;;;5.56;100.00;100246.91;5255338;28;20036;-71
2021/12/02 11:59:17;;;;;;;3.47;0.95;;;;;;;5.55;100.00;100240.06;5250914;28;20032;-72
2021/12/02 12:01:57;;;;;;;1.50;0.50;;;;;;;5.40;100.00;100227.38;5251046;28;20041;-72
2021/12/02 12:04:28;;;;;;;1.00;0.45;;;;;;;5.12;100.00;100232.81;5244955;28;20034;-72
2021/12/02 12:07:11;;;;;;;4.40;0.85;;;;;;;5.12;100.00;100231.97;5235873;28;20550;-72
2021/12/02 12:09:43;;;;;;;1.95;0.60;;;;;;;4.99;100.00;100232.00;5250536;28;20055;-72
2021/12/02 12:12:14;;;;;;;3.90;0.85;;;;;;;4.83;100.00;100227.09;5249345;28;20013;-72
2021/12/02 12:14:48;;;;;;;3.03;0.68;;;;;;;4.85;100.00;100225.22;5255740;28;20151;-72
2021/12/02 12:17:20;;;;;;;3.50;1.00;;;;;;;4.87;100.00;100218.13;5238316;28;20025;-72
2021/12/02 12:19:52;;;;;;;4.00;0.98;;;;;;;4.90;100.00;100227.47;5246545;28;20039;-72
2021/12/02 12:22:32;;;;;;;5.03;0.77;;;;;;;5.00;100.00;100231.09;5232573;28;20029;-72
2021/12/02 12:25:06;;;;;;;4.78;1.25;;;;;;;4.86;100.00;100241.63;5251956;28;20025;-72
2021/12/02 12:27:38;;;;;;;5.35;0.80;;;;;;;4.86;100.00;100242.44;5229595;28;20421;-73
2021/12/02 12:30:11;;;;;;;4.60;1.23;;;;;;;4.84;100.00;100246.06;5236609;28;20018;-72